sensor_id;sensor_type;location;lat;lon;timestamp;pressure;altitude;pressure_sealevel;temperature;humidity
11888;BME280;6003;42.756;23.130;2023-03-13T00:01:30;152105.84;;;-1.20;80.41
11888;BME280;6003;42.756;23.130;2023-03-13T00:03:57;152096.72;;;-1.23;80.30
11888;BME280;6003;42.756;23.130;2023-03-13T00:06:25;152096.72;;;-1.23;81.20
11888;BME280;6003;42.756;23.130;2023-03-13T00:08:54;152109.75;;;-1.18;80.97
11888;BME280;6003;42.756;23.130;2023-03-13T00:11:21;152101.91;;;-1.21;81.25
11888;BME280;6003;42.756;23.130;2023-03-13T00:13:48;152083.59;;;-1.28;81.71
11888;BME280;6003;42.756;23.130;2023-03-13T00:16:18;152108.44;;;-1.19;81.31
11888;BME280;6003;42.756;23.130;2023-03-13T00:18:47;152103.25;;;-1.21;81.11
11888;BME280;6003;42.756;23.130;2023-03-13T00:21:15;152086.22;;;-1.27;82.11
11888;BME280;6003;42.756;23.130;2023-03-13T00:23:42;152070.50;;;-1.33;82.86
11888;BME280;6003;42.756;23.130;2023-03-13T00:26:12;152091.47;;;-1.25;81.55
11888;BME280;6003;42.756;23.130;2023-03-13T00:28:40;152094.06;;;-1.24;81.21
11888;BME280;6003;42.756;23.130;2023-03-13T00:31:08;152094.06;;;-1.24;81.30
11888;BME280;6003;42.756;23.130;2023-03-13T00:33:37;152090.16;;;-1.26;81.48
11888;BME280;6003;42.756;23.130;2023-03-13T00:36:07;152095.34;;;-1.24;81.30
11888;BME280;6003;42.756;23.130;2023-03-13T00:38:34;152109.75;;;-1.18;81.23
11888;BME280;6003;42.756;23.130;2023-03-13T00:41:03;152101.91;;;-1.21;81.45
11888;BME280;6003;42.756;23.130;2023-03-13T00:43:33;152087.50;;;-1.27;81.39
11888;BME280;6003;42.756;23.130;2023-03-13T00:46:00;152073.09;;;-1.32;81.79
11888;BME280;6003;42.756;23.130;2023-03-13T00:48:27;152082.31;;;-1.29;80.80
11888;BME280;6003;42.756;23.130;2023-03-13T00:50:54;152082.31;;;-1.29;81.31
11888;BME280;6003;42.756;23.130;2023-03-13T00:53:21;152069.22;;;-1.34;81.14
11888;BME280;6003;42.756;23.130;2023-03-13T00:55:55;152062.66;;;-1.37;81.19
11888;BME280;6003;42.756;23.130;2023-03-13T00:58:24;152062.66;;;-1.37;81.50
11888;BME280;6003;42.756;23.130;2023-03-13T01:00:53;152054.81;;;-1.40;81.33
11888;BME280;6003;42.756;23.130;2023-03-13T01:03:21;152040.41;;;-1.45;81.57
11888;BME280;6003;42.756;23.130;2023-03-13T01:05:56;152041.72;;;-1.45;81.68
11888;BME280;6003;42.756;23.130;2023-03-13T01:08:23;152044.38;;;-1.44;81.48
11888;BME280;6003;42.756;23.130;2023-03-13T01:10:49;152036.47;;;-1.47;81.19
11888;BME280;6003;42.756;23.130;2023-03-13T01:13:16;152020.78;;;-1.53;81.67
11888;BME280;6003;42.756;23.130;2023-03-13T01:15:43;152023.44;;;-1.52;81.33
11888;BME280;6003;42.756;23.130;2023-03-13T01:18:11;152007.72;;;-1.58;81.84
11888;BME280;6003;42.756;23.130;2023-03-13T01:20:39;151998.53;;;-1.62;81.85
11888;BME280;6003;42.756;23.130;2023-03-13T01:23:06;152010.34;;;-1.57;82.10
11888;BME280;6003;42.756;23.130;2023-03-13T01:25:35;152011.63;;;-1.56;81.72
11888;BME280;6003;42.756;23.130;2023-03-13T01:28:03;151999.88;;;-1.61;81.44
11888;BME280;6003;42.756;23.130;2023-03-13T01:30:30;152012.94;;;-1.56;81.42
11888;BME280;6003;42.756;23.130;2023-03-13T01:32:57;152005.09;;;-1.59;81.27
11888;BME280;6003;42.756;23.130;2023-03-13T01:35:25;152006.38;;;-1.59;81.40
11888;BME280;6003;42.756;23.130;2023-03-13T01:37:52;151973.69;;;-1.71;81.92
11888;BME280;6003;42.756;23.130;2023-03-13T01:40:19;151973.69;;;-1.71;81.59
11888;BME280;6003;42.756;23.130;2023-03-13T01:42:53;151984.16;;;-1.67;81.67
11888;BME280;6003;42.756;23.130;2023-03-13T01:45:50;151989.41;;;-1.65;82.00
11888;BME280;6003;42.756;23.130;2023-03-13T01:48:19;151994.63;;;-1.63;81.84
11888;BME280;6003;42.756;23.130;2023-03-13T01:50:49;151986.78;;;-1.66;82.14
11888;BME280;6003;42.756;23.130;2023-03-13T01:53:15;151978.94;;;-1.69;82.13
11888;BME280;6003;42.756;23.130;2023-03-13T01:55:43;151971.09;;;-1.72;82.82
11888;BME280;6003;42.756;23.130;2023-03-13T01:58:10;151969.75;;;-1.73;82.78
11888;BME280;6003;42.756;23.130;2023-03-13T02:00:39;151955.38;;;-1.78;82.76
11888;BME280;6003;42.756;23.130;2023-03-13T02:03:10;151944.91;;;-1.83;82.80
11888;BME280;6003;42.756;23.130;2023-03-13T02:05:38;151921.38;;;-1.92;83.23
11888;BME280;6003;42.756;23.130;2023-03-13T02:08:10;151912.25;;;-1.95;83.67
11888;BME280;6003;42.756;23.130;2023-03-13T02:10:42;151884.78;;;-2.06;83.96
11888;BME280;6003;42.756;23.130;2023-03-13T02:13:14;151875.63;;;-2.10;84.25
11888;BME280;6003;42.756;23.130;2023-03-13T02:15:43;151872.97;;;-2.11;84.52
11888;BME280;6003;42.756;23.130;2023-03-13T02:18:11;151856.00;;;-2.17;84.33
11888;BME280;6003;42.756;23.130;2023-03-13T02:20:39;151850.75;;;-2.19;84.69
11888;BME280;6003;42.756;23.130;2023-03-13T02:23:13;151835.06;;;-2.25;84.62
11888;BME280;6003;42.756;23.130;2023-03-13T02:25:46;151841.63;;;-2.23;84.72
11888;BME280;6003;42.756;23.130;2023-03-13T02:28:16;151840.31;;;-2.23;84.88
11888;BME280;6003;42.756;23.130;2023-03-13T02:30:46;151837.66;;;-2.24;84.81
11888;BME280;6003;42.756;23.130;2023-03-13T02:33:14;151856.00;;;-2.17;83.90
11888;BME280;6003;42.756;23.130;2023-03-13T02:35:43;151887.38;;;-2.05;83.50
11888;BME280;6003;42.756;23.130;2023-03-13T02:38:15;151897.84;;;-2.01;83.94
11888;BME280;6003;42.756;23.130;2023-03-13T02:40:46;151908.31;;;-1.97;83.19
11888;BME280;6003;42.756;23.130;2023-03-13T02:43:17;151916.13;;;-1.94;83.71
11888;BME280;6003;42.756;23.130;2023-03-13T02:46:04;151910.91;;;-1.96;83.30
11888;BME280;6003;42.756;23.130;2023-03-13T02:48:33;151918.75;;;-1.93;83.05
11888;BME280;6003;42.756;23.130;2023-03-13T02:51:02;151921.38;;;-1.92;83.20
11888;BME280;6003;42.756;23.130;2023-03-13T02:53:30;151937.06;;;-1.86;82.57
11888;BME280;6003;42.756;23.130;2023-03-13T02:56:00;151935.78;;;-1.86;82.11
11888;BME280;6003;42.756;23.130;2023-03-13T02:58:27;151914.84;;;-1.94;82.92
11888;BME280;6003;42.756;23.130;2023-03-13T03:01:00;151916.13;;;-1.94;82.50
11888;BME280;6003;42.756;23.130;2023-03-13T03:03:33;151917.44;;;-1.93;83.16
11888;BME280;6003;42.756;23.130;2023-03-13T03:06:00;151927.94;;;-1.89;82.46
11888;BME280;6003;42.756;23.130;2023-03-13T03:08:27;151937.06;;;-1.86;82.42
11888;BME280;6003;42.756;23.130;2023-03-13T03:10:54;151925.28;;;-1.90;82.23
11888;BME280;6003;42.756;23.130;2023-03-13T03:13:22;151923.97;;;-1.91;82.37
11888;BME280;6003;42.756;23.130;2023-03-13T03:15:49;151909.59;;;-1.96;82.39
11888;BME280;6003;42.756;23.130;2023-03-13T03:18:16;151912.25;;;-1.95;83.23
11888;BME280;6003;42.756;23.130;2023-03-13T03:20:42;151900.44;;;-2.00;83.09
11888;BME280;6003;42.756;23.130;2023-03-13T03:23:09;151899.16;;;-2.00;83.48
11888;BME280;6003;42.756;23.130;2023-03-13T03:25:36;151888.66;;;-2.05;83.17
11888;BME280;6003;42.756;23.130;2023-03-13T03:28:03;151895.22;;;-2.02;83.35
11888;BME280;6003;42.756;23.130;2023-03-13T03:30:31;151900.44;;;-2.00;83.56
11888;BME280;6003;42.756;23.130;2023-03-13T03:32:58;151904.41;;;-1.98;83.68
11888;BME280;6003;42.756;23.130;2023-03-13T03:35:25;151892.59;;;-2.03;83.32
11888;BME280;6003;42.756;23.130;2023-03-13T03:37:51;151871.69;;;-2.11;83.53
11888;BME280;6003;42.756;23.130;2023-03-13T03:40:18;151861.25;;;-2.15;83.42
11888;BME280;6003;42.756;23.130;2023-03-13T03:42:45;151849.44;;;-2.20;83.76
11888;BME280;6003;42.756;23.130;2023-03-13T03:45:12;151852.06;;;-2.19;83.61
11888;BME280;6003;42.756;23.130;2023-03-13T03:47:41;151848.16;;;-2.20;83.33
11888;BME280;6003;42.756;23.130;2023-03-13T03:50:09;151842.91;;;-2.22;83.31
11888;BME280;6003;42.756;23.130;2023-03-13T03:52:36;151816.78;;;-2.33;83.54
11888;BME280;6003;42.756;23.130;2023-03-13T03:55:04;151816.78;;;-2.33;83.73
11888;BME280;6003;42.756;23.130;2023-03-13T03:57:31;151806.31;;;-2.37;83.94
11888;BME280;6003;42.756;23.130;2023-03-13T03:59:57;151789.31;;;-2.43;84.24
11888;BME280;6003;42.756;23.130;2023-03-13T04:02:24;151788.03;;;-2.44;84.41
11888;BME280;6003;42.756;23.130;2023-03-13T04:04:53;151769.69;;;-2.51;84.35
11888;BME280;6003;42.756;23.130;2023-03-13T04:07:19;151772.34;;;-2.50;84.71
11888;BME280;6003;42.756;23.130;2023-03-13T04:09:46;151771.00;;;-2.51;84.41
11888;BME280;6003;42.756;23.130;2023-03-13T04:12:13;151761.84;;;-2.54;84.57
11888;BME280;6003;42.756;23.130;2023-03-13T04:14:40;151742.28;;;-2.62;85.29
11888;BME280;6003;42.756;23.130;2023-03-13T04:17:06;151726.56;;;-2.68;85.45
11888;BME280;6003;42.756;23.130;2023-03-13T04:19:33;151721.38;;;-2.70;85.62
11888;BME280;6003;42.756;23.130;2023-03-13T04:22:01;151710.88;;;-2.74;85.61
11888;BME280;6003;42.756;23.130;2023-03-13T04:24:28;151692.59;;;-2.81;86.28
11888;BME280;6003;42.756;23.130;2023-03-13T04:26:55;151691.31;;;-2.82;86.64
11888;BME280;6003;42.756;23.130;2023-03-13T04:29:21;151678.22;;;-2.87;86.58
11888;BME280;6003;42.756;23.130;2023-03-13T04:31:48;151680.81;;;-2.86;86.87
11888;BME280;6003;42.756;23.130;2023-03-13T04:34:15;151683.47;;;-2.85;86.99
11888;BME280;6003;42.756;23.130;2023-03-13T04:36:42;151678.22;;;-2.87;87.09
11888;BME280;6003;42.756;23.130;2023-03-13T04:39:10;151680.81;;;-2.86;86.94
11888;BME280;6003;42.756;23.130;2023-03-13T04:41:37;151680.81;;;-2.86;86.89
11888;BME280;6003;42.756;23.130;2023-03-13T04:44:04;151670.38;;;-2.90;86.97
11888;BME280;6003;42.756;23.130;2023-03-13T04:46:31;151671.69;;;-2.89;87.37
11888;BME280;6003;42.756;23.130;2023-03-13T04:49:00;151683.47;;;-2.85;87.10
11888;BME280;6003;42.756;23.130;2023-03-13T04:51:27;151673.00;;;-2.89;87.64
11888;BME280;6003;42.756;23.130;2023-03-13T04:53:54;151678.22;;;-2.87;87.54
11888;BME280;6003;42.756;23.130;2023-03-13T04:56:24;151703.03;;;-2.77;87.13
11888;BME280;6003;42.756;23.130;2023-03-13T04:58:52;151720.00;;;-2.70;87.21
11888;BME280;6003;42.756;23.130;2023-03-13T05:01:19;151733.09;;;-2.65;87.24
11888;BME280;6003;42.756;23.130;2023-03-13T05:03:46;151795.88;;;-2.41;87.75
11888;BME280;6003;42.756;23.130;2023-03-13T05:06:13;151976.31;;;-1.70;87.84
11888;BME280;6003;42.756;23.130;2023-03-13T05:08:40;152049.56;;;-1.42;83.72
11888;BME280;6003;42.756;23.130;2023-03-13T05:11:07;152232.81;;;-0.70;82.18
11888;BME280;6003;42.756;23.130;2023-03-13T05:13:35;152401.78;;;-0.04;79.51
11888;BME280;6003;42.756;23.130;2023-03-13T05:16:03;152604.94;;;0.75;77.36
11888;BME280;6003;42.756;23.130;2023-03-13T05:18:30;152695.38;;;1.10;75.00
11888;BME280;6003;42.756;23.130;2023-03-13T05:20:56;152875.09;;;1.80;73.04
11888;BME280;6003;42.756;23.130;2023-03-13T05:23:23;153026.06;;;2.39;71.37
11888;BME280;6003;42.756;23.130;2023-03-13T05:25:50;153120.56;;;2.76;69.37
11888;BME280;6003;42.756;23.130;2023-03-13T05:28:17;153040.50;;;2.45;68.70
11888;BME280;6003;42.756;23.130;2023-03-13T05:30:45;153153.44;;;2.89;67.66
11888;BME280;6003;42.756;23.130;2023-03-13T05:33:11;153245.34;;;3.25;66.31
11888;BME280;6003;42.756;23.130;2023-03-13T05:35:38;153186.25;;;3.02;66.54
11888;BME280;6003;42.756;23.130;2023-03-13T05:38:05;153213.84;;;3.12;66.47
11888;BME280;6003;42.756;23.130;2023-03-13T05:40:32;153184.94;;;3.01;66.10
11888;BME280;6003;42.756;23.130;2023-03-13T05:42:59;153158.69;;;2.91;67.29
11888;BME280;6003;42.756;23.130;2023-03-13T05:45:25;153123.22;;;2.77;68.08
11888;BME280;6003;42.756;23.130;2023-03-13T05:47:53;153085.13;;;2.62;69.41
11888;BME280;6003;42.756;23.130;2023-03-13T05:50:20;153057.56;;;2.52;69.11
11888;BME280;6003;42.756;23.130;2023-03-13T05:52:47;153036.53;;;2.43;69.30
11888;BME280;6003;42.756;23.130;2023-03-13T05:55:14;153015.53;;;2.35;69.65
11888;BME280;6003;42.756;23.130;2023-03-13T05:57:43;152982.72;;;2.22;70.42
11888;BME280;6003;42.756;23.130;2023-03-13T06:00:11;152977.47;;;2.20;71.55
11888;BME280;6003;42.756;23.130;2023-03-13T06:02:38;152944.66;;;2.08;69.73
11888;BME280;6003;42.756;23.130;2023-03-13T06:17:03;153027.34;;;2.40;70.24
11888;BME280;6003;42.756;23.130;2023-03-13T06:19:31;153027.34;;;2.40;70.36
11888;BME280;6003;42.756;23.130;2023-03-13T06:21:58;153056.25;;;2.51;70.16
11888;BME280;6003;42.756;23.130;2023-03-13T06:24:25;153095.63;;;2.66;69.92
11888;BME280;6003;42.756;23.130;2023-03-13T06:26:51;153135.00;;;2.82;69.29
11888;BME280;6003;42.756;23.130;2023-03-13T06:29:18;153119.25;;;2.76;68.41
11888;BME280;6003;42.756;23.130;2023-03-13T06:31:45;153129.78;;;2.80;70.01
11888;BME280;6003;42.756;23.130;2023-03-13T06:34:13;153163.91;;;2.93;70.38
11888;BME280;6003;42.756;23.130;2023-03-13T06:36:41;153184.94;;;3.01;70.03
11888;BME280;6003;42.756;23.130;2023-03-13T06:39:08;153204.66;;;3.09;68.41
11888;BME280;6003;42.756;23.130;2023-03-13T06:41:35;153226.97;;;3.17;69.17
11888;BME280;6003;42.756;23.130;2023-03-13T06:44:02;153232.25;;;3.20;70.06
11888;BME280;6003;42.756;23.130;2023-03-13T06:46:29;153226.97;;;3.17;69.79
11888;BME280;6003;42.756;23.130;2023-03-13T06:48:57;153233.56;;;3.20;70.51
11888;BME280;6003;42.756;23.130;2023-03-13T06:51:26;153232.25;;;3.20;70.73
11888;BME280;6003;42.756;23.130;2023-03-13T06:53:53;153229.59;;;3.19;70.38
11888;BME280;6003;42.756;23.130;2023-03-13T06:56:20;153237.47;;;3.22;71.35
11888;BME280;6003;42.756;23.130;2023-03-13T06:58:48;153248.03;;;3.26;70.33
11888;BME280;6003;42.756;23.130;2023-03-13T07:01:16;153279.53;;;3.38;70.04
11888;BME280;6003;42.756;23.130;2023-03-13T07:03:43;153299.25;;;3.46;70.33
11888;BME280;6003;42.756;23.130;2023-03-13T07:06:10;153324.22;;;3.55;69.67
11888;BME280;6003;42.756;23.130;2023-03-13T07:08:39;153328.19;;;3.57;68.98
11888;BME280;6003;42.756;23.130;2023-03-13T07:11:07;153363.63;;;3.71;71.34
11888;BME280;6003;42.756;23.130;2023-03-13T07:13:35;153389.94;;;3.81;71.22
11888;BME280;6003;42.756;23.130;2023-03-13T07:16:02;153412.28;;;3.90;69.89
11888;BME280;6003;42.756;23.130;2023-03-13T07:18:30;153414.91;;;3.91;69.86
11888;BME280;6003;42.756;23.130;2023-03-13T07:20:58;153400.44;;;3.85;71.32
11888;BME280;6003;42.756;23.130;2023-03-13T07:23:27;153424.13;;;3.94;70.26
11888;BME280;6003;42.756;23.130;2023-03-13T07:25:57;153466.16;;;4.11;70.39
11888;BME280;6003;42.756;23.130;2023-03-13T07:28:25;153447.78;;;4.03;69.17
11888;BME280;6003;42.756;23.130;2023-03-13T07:30:52;153416.19;;;3.91;69.13
11888;BME280;6003;42.756;23.130;2023-03-13T07:33:19;153363.63;;;3.71;69.69
11888;BME280;6003;42.756;23.130;2023-03-13T07:35:47;153408.31;;;3.88;69.17
11888;BME280;6003;42.756;23.130;2023-03-13T07:38:14;153458.28;;;4.07;70.10
11888;BME280;6003;42.756;23.130;2023-03-13T07:40:47;153496.41;;;4.22;66.64
11888;BME280;6003;42.756;23.130;2023-03-13T07:43:16;153505.66;;;4.26;65.44
11888;BME280;6003;42.756;23.130;2023-03-13T07:45:50;153513.53;;;4.29;66.34
11888;BME280;6003;42.756;23.130;2023-03-13T07:48:17;153528.00;;;4.35;66.03
11888;BME280;6003;42.756;23.130;2023-03-13T07:50:44;153577.94;;;4.54;65.30
11888;BME280;6003;42.756;23.130;2023-03-13T07:53:11;153584.53;;;4.57;64.17
11888;BME280;6003;42.756;23.130;2023-03-13T07:55:38;153541.13;;;4.40;65.29
11888;BME280;6003;42.756;23.130;2023-03-13T07:58:04;153584.53;;;4.57;65.63
11888;BME280;6003;42.756;23.130;2023-03-13T08:00:33;153610.84;;;4.67;66.95
11888;BME280;6003;42.756;23.130;2023-03-13T08:02:59;153629.25;;;4.74;64.28
11888;BME280;6003;42.756;23.130;2023-03-13T08:05:26;153637.13;;;4.77;64.41
11888;BME280;6003;42.756;23.130;2023-03-13T08:07:53;153656.88;;;4.85;64.95
11888;BME280;6003;42.756;23.130;2023-03-13T08:10:20;153589.81;;;4.59;64.06
11888;BME280;6003;42.756;23.130;2023-03-13T08:12:46;153666.09;;;4.88;65.08
11888;BME280;6003;42.756;23.130;2023-03-13T08:15:13;153705.59;;;5.04;63.73
11888;BME280;6003;42.756;23.130;2023-03-13T08:17:41;153763.47;;;5.26;65.19
11888;BME280;6003;42.756;23.130;2023-03-13T08:20:10;153802.97;;;5.41;64.29
11888;BME280;6003;42.756;23.130;2023-03-13T08:22:37;153839.84;;;5.56;65.17
11888;BME280;6003;42.756;23.130;2023-03-13T08:25:04;153822.69;;;5.49;62.90
11888;BME280;6003;42.756;23.130;2023-03-13T08:27:31;153855.63;;;5.62;64.47
11888;BME280;6003;42.756;23.130;2023-03-13T08:29:58;153859.53;;;5.63;62.99
11888;BME280;6003;42.756;23.130;2023-03-13T08:32:24;153852.97;;;5.61;63.61
11888;BME280;6003;42.756;23.130;2023-03-13T08:34:53;153850.34;;;5.60;63.18
11888;BME280;6003;42.756;23.130;2023-03-13T08:37:19;153852.97;;;5.61;64.51
11888;BME280;6003;42.756;23.130;2023-03-13T08:39:46;153868.81;;;5.67;63.66
11888;BME280;6003;42.756;23.130;2023-03-13T08:42:14;153878.00;;;5.71;63.39
11888;BME280;6003;42.756;23.130;2023-03-13T08:44:41;153842.44;;;5.57;62.40
11888;BME280;6003;42.756;23.130;2023-03-13T08:47:07;153837.16;;;5.55;63.17
11888;BME280;6003;42.756;23.130;2023-03-13T08:49:34;153897.78;;;5.78;64.01
11888;BME280;6003;42.756;23.130;2023-03-13T08:52:07;153947.81;;;5.98;65.17
11888;BME280;6003;42.756;23.130;2023-03-13T08:54:33;153995.25;;;6.16;62.20
11888;BME280;6003;42.756;23.130;2023-03-13T08:57:00;153974.19;;;6.08;60.88
11888;BME280;6003;42.756;23.130;2023-03-13T08:59:27;154007.09;;;6.21;61.01
11888;BME280;6003;42.756;23.130;2023-03-13T09:01:54;153984.69;;;6.12;61.50
11888;BME280;6003;42.756;23.130;2023-03-13T09:04:21;154029.47;;;6.29;60.52
11888;BME280;6003;42.756;23.130;2023-03-13T09:06:47;154090.06;;;6.53;61.73
11888;BME280;6003;42.756;23.130;2023-03-13T09:09:16;154108.53;;;6.60;61.09
11888;BME280;6003;42.756;23.130;2023-03-13T09:11:42;154098.03;;;6.56;57.70
11888;BME280;6003;42.756;23.130;2023-03-13T09:14:09;154055.84;;;6.40;61.94
11888;BME280;6003;42.756;23.130;2023-03-13T09:16:36;154087.44;;;6.52;57.78
11888;BME280;6003;42.756;23.130;2023-03-13T09:19:03;154103.25;;;6.58;56.77
11888;BME280;6003;42.756;23.130;2023-03-13T09:21:32;154113.81;;;6.62;59.82
11888;BME280;6003;42.756;23.130;2023-03-13T09:23:59;154134.91;;;6.70;60.08
11888;BME280;6003;42.756;23.130;2023-03-13T09:26:28;154158.63;;;6.80;58.42
11888;BME280;6003;42.756;23.130;2023-03-13T09:28:55;154175.72;;;6.86;57.90
11888;BME280;6003;42.756;23.130;2023-03-13T09:31:24;154237.66;;;7.10;58.77
11888;BME280;6003;42.756;23.130;2023-03-13T09:33:52;154229.75;;;7.07;58.03
11888;BME280;6003;42.756;23.130;2023-03-13T09:36:19;154264.06;;;7.20;57.18
11888;BME280;6003;42.756;23.130;2023-03-13T09:38:54;154242.94;;;7.12;56.18
11888;BME280;6003;42.756;23.130;2023-03-13T09:41:26;154192.84;;;6.93;57.79
11888;BME280;6003;42.756;23.130;2023-03-13T09:44:02;154210.03;;;6.99;58.05
11888;BME280;6003;42.756;23.130;2023-03-13T09:46:38;154232.44;;;7.08;58.69
11888;BME280;6003;42.756;23.130;2023-03-13T09:49:24;154273.25;;;7.24;57.31
11888;BME280;6003;42.756;23.130;2023-03-13T09:51:59;154285.16;;;7.29;57.08
11888;BME280;6003;42.756;23.130;2023-03-13T09:54:33;154269.34;;;7.22;56.51
11888;BME280;6003;42.756;23.130;2023-03-13T09:57:05;154279.88;;;7.27;56.64
11888;BME280;6003;42.756;23.130;2023-03-13T09:59:40;154322.06;;;7.43;58.41
11888;BME280;6003;42.756;23.130;2023-03-13T10:02:23;154357.69;;;7.57;55.77
11888;BME280;6003;42.756;23.130;2023-03-13T10:04:53;154374.81;;;7.63;58.25
11888;BME280;6003;42.756;23.130;2023-03-13T10:07:22;154488.22;;;8.07;62.35
11888;BME280;6003;42.756;23.130;2023-03-13T10:09:49;154551.56;;;8.32;59.57
11888;BME280;6003;42.756;23.130;2023-03-13T10:12:19;154496.13;;;8.10;53.67
11888;BME280;6003;42.756;23.130;2023-03-13T10:14:53;154510.63;;;8.16;54.92
11888;BME280;6003;42.756;23.130;2023-03-13T10:17:30;154502.72;;;8.13;56.32
11888;BME280;6003;42.756;23.130;2023-03-13T10:20:01;154480.31;;;8.04;56.21
11888;BME280;6003;42.756;23.130;2023-03-13T10:22:35;154435.47;;;7.87;57.88
11888;BME280;6003;42.756;23.130;2023-03-13T10:25:05;154510.63;;;8.16;56.16
11888;BME280;6003;42.756;23.130;2023-03-13T10:27:42;154543.66;;;8.29;56.97
11888;BME280;6003;42.756;23.130;2023-03-13T10:30:20;154527.78;;;8.23;54.80
11888;BME280;6003;42.756;23.130;2023-03-13T10:32:48;154449.97;;;7.93;55.15
11888;BME280;6003;42.756;23.130;2023-03-13T10:35:20;154417.03;;;7.80;55.96
11888;BME280;6003;42.756;23.130;2023-03-13T10:37:47;154461.88;;;7.97;56.05
11888;BME280;6003;42.756;23.130;2023-03-13T10:40:20;154533.06;;;8.25;55.11
11888;BME280;6003;42.756;23.130;2023-03-13T10:42:50;154537.03;;;8.26;54.92
11888;BME280;6003;42.756;23.130;2023-03-13T10:45:20;154554.19;;;8.33;54.21
11888;BME280;6003;42.756;23.130;2023-03-13T10:47:53;154633.44;;;8.64;56.91
11888;BME280;6003;42.756;23.130;2023-03-13T10:50:23;154704.66;;;8.91;57.78
11888;BME280;6003;42.756;23.130;2023-03-13T10:52:51;154787.84;;;9.23;58.19
11888;BME280;6003;42.756;23.130;2023-03-13T10:55:19;154865.78;;;9.54;53.64
11888;BME280;6003;42.756;23.130;2023-03-13T10:57:56;154901.44;;;9.67;55.09
11888;BME280;6003;42.756;23.130;2023-03-13T11:00:29;154943.69;;;9.84;55.85
11888;BME280;6003;42.756;23.130;2023-03-13T11:02:58;154905.38;;;9.69;52.14
11888;BME280;6003;42.756;23.130;2023-03-13T11:05:31;154830.09;;;9.40;52.93
11888;BME280;6003;42.756;23.130;2023-03-13T11:08:11;154819.56;;;9.36;52.68
11888;BME280;6003;42.756;23.130;2023-03-13T11:10:51;154810.34;;;9.32;58.10
11888;BME280;6003;42.756;23.130;2023-03-13T11:13:28;154748.25;;;9.08;54.10
11888;BME280;6003;42.756;23.130;2023-03-13T11:16:00;154749.56;;;9.09;53.33
11888;BME280;6003;42.756;23.130;2023-03-13T11:18:33;154665.09;;;8.76;55.85
11888;BME280;6003;42.756;23.130;2023-03-13T11:21:03;154671.69;;;8.78;56.66
11888;BME280;6003;42.756;23.130;2023-03-13T11:23:34;154636.03;;;8.65;55.79
11888;BME280;6003;42.756;23.130;2023-03-13T11:26:10;154620.22;;;8.58;57.53
11888;BME280;6003;42.756;23.130;2023-03-13T11:28:48;154622.84;;;8.59;59.50
11888;BME280;6003;42.756;23.130;2023-03-13T11:31:21;154665.09;;;8.76;55.60
11888;BME280;6003;42.756;23.130;2023-03-13T11:33:54;154599.09;;;8.50;55.75
11888;BME280;6003;42.756;23.130;2023-03-13T11:36:30;154593.81;;;8.48;54.57
11888;BME280;6003;42.756;23.130;2023-03-13T11:39:05;154593.81;;;8.48;59.27
11888;BME280;6003;42.756;23.130;2023-03-13T11:41:47;154665.09;;;8.76;56.87
11888;BME280;6003;42.756;23.130;2023-03-13T11:44:23;154638.66;;;8.66;55.86
11888;BME280;6003;42.756;23.130;2023-03-13T11:47:21;154641.34;;;8.67;58.88
11888;BME280;6003;42.756;23.130;2023-03-13T11:49:59;154688.84;;;8.85;58.27
11888;BME280;6003;42.756;23.130;2023-03-13T11:52:36;154699.44;;;8.89;55.11
11888;BME280;6003;42.756;23.130;2023-03-13T11:55:29;154670.38;;;8.78;55.27
11888;BME280;6003;42.756;23.130;2023-03-13T11:58:12;154698.06;;;8.89;56.08
11888;BME280;6003;42.756;23.130;2023-03-13T12:00:43;154728.44;;;9.00;56.24
11888;BME280;6003;42.756;23.130;2023-03-13T12:03:17;154748.25;;;9.08;55.90
11888;BME280;6003;42.756;23.130;2023-03-13T12:05:48;154754.84;;;9.11;54.40
11888;BME280;6003;42.756;23.130;2023-03-13T12:08:18;154736.38;;;9.03;56.36
11888;BME280;6003;42.756;23.130;2023-03-13T12:10:53;154720.50;;;8.97;55.70
11888;BME280;6003;42.756;23.130;2023-03-13T12:13:28;154732.41;;;9.02;53.00
11888;BME280;6003;42.756;23.130;2023-03-13T12:15:58;154741.63;;;9.06;53.84
11888;BME280;6003;42.756;23.130;2023-03-13T12:18:30;154725.81;;;8.99;53.50
11888;BME280;6003;42.756;23.130;2023-03-13T12:21:03;154728.44;;;9.00;54.27
11888;BME280;6003;42.756;23.130;2023-03-13T12:23:38;154707.34;;;8.92;53.55
11888;BME280;6003;42.756;23.130;2023-03-13T12:26:12;154725.81;;;8.99;54.34
11888;BME280;6003;42.756;23.130;2023-03-13T12:28:42;154754.84;;;9.11;52.78
11888;BME280;6003;42.756;23.130;2023-03-13T12:31:18;154786.53;;;9.23;53.96
11888;BME280;6003;42.756;23.130;2023-03-13T12:33:56;154798.44;;;9.27;52.09
11888;BME280;6003;42.756;23.130;2023-03-13T12:36:28;154834.09;;;9.41;52.34
11888;BME280;6003;42.756;23.130;2023-03-13T12:39:06;154848.63;;;9.47;51.08
11888;BME280;6003;42.756;23.130;2023-03-13T12:41:39;154844.63;;;9.45;52.24
11888;BME280;6003;42.756;23.130;2023-03-13T12:44:10;154879.00;;;9.59;53.16
11888;BME280;6003;42.756;23.130;2023-03-13T12:46:43;154896.16;;;9.65;52.85
11888;BME280;6003;42.756;23.130;2023-03-13T12:49:30;154923.91;;;9.76;49.76
11888;BME280;6003;42.756;23.130;2023-03-13T12:52:16;154919.91;;;9.75;49.04
11888;BME280;6003;42.756;23.130;2023-03-13T12:54:56;154926.53;;;9.77;48.23
11888;BME280;6003;42.756;23.130;2023-03-13T12:57:59;154908.06;;;9.70;48.73
11888;BME280;6003;42.756;23.130;2023-03-13T13:00:34;154923.91;;;9.76;48.69
11888;BME280;6003;42.756;23.130;2023-03-13T13:03:13;154937.13;;;9.81;49.08
11888;BME280;6003;42.756;23.130;2023-03-13T13:06:04;154923.91;;;9.76;48.72
11888;BME280;6003;42.756;23.130;2023-03-13T13:08:35;154906.69;;;9.69;48.11
11888;BME280;6003;42.756;23.130;2023-03-13T13:14:56;154892.22;;;9.64;48.66
11888;BME280;6003;42.756;23.130;2023-03-13T13:20:38;154910.69;;;9.71;46.72
11888;BME280;6003;42.756;23.130;2023-03-13T13:23:28;154894.84;;;9.65;47.71
11888;BME280;6003;42.756;23.130;2023-03-13T13:32:41;154923.91;;;9.76;43.98
11888;BME280;6003;42.756;23.130;2023-03-13T13:35:27;154909.38;;;9.70;42.51